sensor_id;sensor_type;location;lat;lon;timestamp;P1;durP1;ratioP1;P2;durP2;ratioP2
20114;SDS011;10218;42.874;25.320;2022-11-27T00:01:20;21.07;;;10.87;;
20114;SDS011;10218;42.874;25.320;2022-11-27T00:03:49;20.60;;;11.27;;
20114;SDS011;10218;42.874;25.320;2022-11-27T00:06:18;22.00;;;12.27;;
20114;SDS011;10218;42.874;25.320;2022-11-27T00:08:47;28.40;;;13.20;;
20114;SDS011;10218;42.874;25.320;2022-11-27T00:11:17;26.73;;;14.50;;
20114;SDS011;10218;42.874;25.320;2022-11-27T00:13:47;20.20;;;11.30;;
20114;SDS011;10218;42.874;25.320;2022-11-27T00:16:15;22.73;;;10.67;;
20114;SDS011;10218;42.874;25.320;2022-11-27T00:18:44;18.97;;;10.20;;
20114;SDS011;10218;42.874;25.320;2022-11-27T00:21:13;20.17;;;10.10;;
20114;SDS011;10218;42.874;25.320;2022-11-27T00:23:48;20.20;;;10.13;;
20114;SDS011;10218;42.874;25.320;2022-11-27T00:26:19;21.93;;;10.47;;
20114;SDS011;10218;42.874;25.320;2022-11-27T00:28:46;20.70;;;11.03;;
20114;SDS011;10218;42.874;25.320;2022-11-27T00:31:16;20.07;;;10.50;;
20114;SDS011;10218;42.874;25.320;2022-11-27T00:33:45;19.53;;;10.43;;
20114;SDS011;10218;42.874;25.320;2022-11-27T00:36:12;20.63;;;10.77;;
20114;SDS011;10218;42.874;25.320;2022-11-27T00:38:41;19.97;;;10.50;;
20114;SDS011;10218;42.874;25.320;2022-11-27T00:41:20;25.43;;;13.33;;
20114;SDS011;10218;42.874;25.320;2022-11-27T00:43:53;30.07;;;15.23;;
20114;SDS011;10218;42.874;25.320;2022-11-27T00:46:24;30.83;;;14.40;;
20114;SDS011;10218;42.874;25.320;2022-11-27T00:48:56;30.13;;;14.10;;
20114;SDS011;10218;42.874;25.320;2022-11-27T00:51:25;26.57;;;13.27;;
20114;SDS011;10218;42.874;25.320;2022-11-27T00:53:55;26.53;;;13.40;;
20114;SDS011;10218;42.874;25.320;2022-11-27T00:56:27;26.70;;;13.57;;
20114;SDS011;10218;42.874;25.320;2022-11-27T00:58:56;26.37;;;12.90;;
20114;SDS011;10218;42.874;25.320;2022-11-27T01:01:25;27.23;;;12.57;;
20114;SDS011;10218;42.874;25.320;2022-11-27T01:03:58;28.63;;;13.13;;
20114;SDS011;10218;42.874;25.320;2022-11-27T01:06:27;30.40;;;13.27;;
20114;SDS011;10218;42.874;25.320;2022-11-27T01:08:56;27.03;;;13.00;;
20114;SDS011;10218;42.874;25.320;2022-11-27T01:11:25;26.37;;;12.97;;
20114;SDS011;10218;42.874;25.320;2022-11-27T01:13:55;28.63;;;13.53;;
20114;SDS011;10218;42.874;25.320;2022-11-27T01:16:26;27.30;;;13.60;;
20114;SDS011;10218;42.874;25.320;2022-11-27T01:18:56;34.80;;;14.50;;
20114;SDS011;10218;42.874;25.320;2022-11-27T01:21:27;25.13;;;12.73;;
20114;SDS011;10218;42.874;25.320;2022-11-27T01:23:57;26.20;;;13.33;;
20114;SDS011;10218;42.874;25.320;2022-11-27T01:26:24;26.47;;;13.60;;
20114;SDS011;10218;42.874;25.320;2022-11-27T01:28:52;30.10;;;14.47;;
20114;SDS011;10218;42.874;25.320;2022-11-27T01:31:22;25.03;;;13.50;;
20114;SDS011;10218;42.874;25.320;2022-11-27T01:33:54;26.87;;;14.27;;
20114;SDS011;10218;42.874;25.320;2022-11-27T01:36:27;22.27;;;12.17;;
20114;SDS011;10218;42.874;25.320;2022-11-27T01:38:57;25.30;;;13.67;;
20114;SDS011;10218;42.874;25.320;2022-11-27T01:41:27;27.07;;;14.47;;
20114;SDS011;10218;42.874;25.320;2022-11-27T01:49:26;32.87;;;14.73;;
20114;SDS011;10218;42.874;25.320;2022-11-27T01:52:06;33.23;;;15.20;;
20114;SDS011;10218;42.874;25.320;2022-11-27T01:54:40;24.77;;;13.20;;
20114;SDS011;10218;42.874;25.320;2022-11-27T01:57:13;29.77;;;14.13;;
20114;SDS011;10218;42.874;25.320;2022-11-27T01:59:44;28.37;;;13.63;;
20114;SDS011;10218;42.874;25.320;2022-11-27T02:02:14;26.13;;;13.30;;
20114;SDS011;10218;42.874;25.320;2022-11-27T02:04:41;27.10;;;13.23;;
20114;SDS011;10218;42.874;25.320;2022-11-27T02:07:10;32.03;;;13.73;;
20114;SDS011;10218;42.874;25.320;2022-11-27T02:09:37;27.53;;;14.30;;
20114;SDS011;10218;42.874;25.320;2022-11-27T02:15:02;24.87;;;12.80;;
20114;SDS011;10218;42.874;25.320;2022-11-27T02:23:42;25.00;;;11.60;;
20114;SDS011;10218;42.874;25.320;2022-11-27T02:42:40;25.33;;;12.30;;
20114;SDS011;10218;42.874;25.320;2022-11-27T02:45:13;29.17;;;13.03;;
20114;SDS011;10218;42.874;25.320;2022-11-27T02:47:45;26.93;;;12.93;;
20114;SDS011;10218;42.874;25.320;2022-11-27T02:50:17;26.30;;;13.30;;
20114;SDS011;10218;42.874;25.320;2022-11-27T02:52:49;27.30;;;12.53;;
20114;SDS011;10218;42.874;25.320;2022-11-27T02:55:21;25.87;;;12.50;;
20114;SDS011;10218;42.874;25.320;2022-11-27T02:57:52;24.23;;;12.53;;
20114;SDS011;10218;42.874;25.320;2022-11-27T03:00:22;25.13;;;12.50;;
20114;SDS011;10218;42.874;25.320;2022-11-27T03:02:50;23.60;;;11.93;;
20114;SDS011;10218;42.874;25.320;2022-11-27T03:05:24;21.50;;;12.27;;
20114;SDS011;10218;42.874;25.320;2022-11-27T03:13:20;23.13;;;12.77;;
20114;SDS011;10218;42.874;25.320;2022-11-27T03:16:35;22.93;;;12.50;;
20114;SDS011;10218;42.874;25.320;2022-11-27T03:21:18;18.77;;;10.67;;
20114;SDS011;10218;42.874;25.320;2022-11-27T03:24:00;20.90;;;11.33;;
20114;SDS011;10218;42.874;25.320;2022-11-27T03:26:28;22.60;;;11.30;;
20114;SDS011;10218;42.874;25.320;2022-11-27T03:28:57;22.17;;;11.83;;
20114;SDS011;10218;42.874;25.320;2022-11-27T03:31:27;23.23;;;12.03;;
20114;SDS011;10218;42.874;25.320;2022-11-27T03:33:57;23.47;;;10.87;;
20114;SDS011;10218;42.874;25.320;2022-11-27T03:36:24;20.60;;;10.93;;
20114;SDS011;10218;42.874;25.320;2022-11-27T03:38:52;20.57;;;10.80;;
20114;SDS011;10218;42.874;25.320;2022-11-27T03:44:44;20.10;;;10.30;;
20114;SDS011;10218;42.874;25.320;2022-11-27T03:50:10;20.00;;;10.30;;
20114;SDS011;10218;42.874;25.320;2022-11-27T03:55:29;15.50;;;7.90;;
20114;SDS011;10218;42.874;25.320;2022-11-27T03:58:22;15.23;;;8.33;;
20114;SDS011;10218;42.874;25.320;2022-11-27T04:01:05;19.47;;;10.87;;
20114;SDS011;10218;42.874;25.320;2022-11-27T04:03:37;21.23;;;11.13;;
20114;SDS011;10218;42.874;25.320;2022-11-27T04:06:04;19.03;;;11.20;;
20114;SDS011;10218;42.874;25.320;2022-11-27T04:08:32;20.83;;;11.37;;
20114;SDS011;10218;42.874;25.320;2022-11-27T04:10:59;20.53;;;11.50;;
20114;SDS011;10218;42.874;25.320;2022-11-27T04:13:28;22.17;;;12.17;;
20114;SDS011;10218;42.874;25.320;2022-11-27T04:15:55;21.73;;;11.67;;
20114;SDS011;10218;42.874;25.320;2022-11-27T04:18:27;28.03;;;12.93;;
20114;SDS011;10218;42.874;25.320;2022-11-27T04:20:56;25.50;;;13.67;;
20114;SDS011;10218;42.874;25.320;2022-11-27T04:23:24;23.37;;;13.70;;
20114;SDS011;10218;42.874;25.320;2022-11-27T04:25:51;24.07;;;14.27;;
20114;SDS011;10218;42.874;25.320;2022-11-27T04:28:18;25.67;;;14.27;;
20114;SDS011;10218;42.874;25.320;2022-11-27T04:30:49;25.43;;;14.47;;
20114;SDS011;10218;42.874;25.320;2022-11-27T04:33:19;41.33;;;22.30;;
20114;SDS011;10218;42.874;25.320;2022-11-27T04:35:48;38.97;;;22.43;;
20114;SDS011;10218;42.874;25.320;2022-11-27T04:38:16;40.57;;;21.60;;
20114;SDS011;10218;42.874;25.320;2022-11-27T04:40:44;40.13;;;20.80;;
20114;SDS011;10218;42.874;25.320;2022-11-27T04:43:11;37.87;;;21.20;;
20114;SDS011;10218;42.874;25.320;2022-11-27T04:45:39;35.93;;;18.53;;
20114;SDS011;10218;42.874;25.320;2022-11-27T04:48:08;40.23;;;18.80;;
20114;SDS011;10218;42.874;25.320;2022-11-27T04:50:35;33.67;;;17.57;;
20114;SDS011;10218;42.874;25.320;2022-11-27T04:53:02;31.10;;;17.20;;
20114;SDS011;10218;42.874;25.320;2022-11-27T04:55:31;30.97;;;16.13;;
20114;SDS011;10218;42.874;25.320;2022-11-27T04:57:59;24.67;;;13.53;;
20114;SDS011;10218;42.874;25.320;2022-11-27T05:00:27;27.20;;;14.40;;
20114;SDS011;10218;42.874;25.320;2022-11-27T05:02:54;24.63;;;14.03;;
20114;SDS011;10218;42.874;25.320;2022-11-27T05:05:22;25.20;;;14.00;;
20114;SDS011;10218;42.874;25.320;2022-11-27T05:07:50;25.57;;;13.57;;
20114;SDS011;10218;42.874;25.320;2022-11-27T05:10:18;37.10;;;19.10;;
20114;SDS011;10218;42.874;25.320;2022-11-27T05:12:46;38.93;;;20.43;;
20114;SDS011;10218;42.874;25.320;2022-11-27T05:15:14;37.53;;;20.20;;
20114;SDS011;10218;42.874;25.320;2022-11-27T05:17:42;46.33;;;21.87;;
20114;SDS011;10218;42.874;25.320;2022-11-27T05:20:09;44.57;;;23.63;;
20114;SDS011;10218;42.874;25.320;2022-11-27T05:22:36;68.23;;;36.17;;
20114;SDS011;10218;42.874;25.320;2022-11-27T05:25:04;72.30;;;38.63;;
20114;SDS011;10218;42.874;25.320;2022-11-27T05:27:31;110.97;;;57.60;;
20114;SDS011;10218;42.874;25.320;2022-11-27T05:29:58;68.00;;;35.93;;
20114;SDS011;10218;42.874;25.320;2022-11-27T05:32:26;75.40;;;42.60;;
20114;SDS011;10218;42.874;25.320;2022-11-27T05:34:53;80.40;;;45.43;;
20114;SDS011;10218;42.874;25.320;2022-11-27T05:37:21;52.57;;;28.00;;
20114;SDS011;10218;42.874;25.320;2022-11-27T05:39:50;40.93;;;20.30;;
20114;SDS011;10218;42.874;25.320;2022-11-27T05:42:17;38.87;;;19.57;;
20114;SDS011;10218;42.874;25.320;2022-11-27T05:44:44;53.93;;;24.60;;
20114;SDS011;10218;42.874;25.320;2022-11-27T05:47:12;54.57;;;29.63;;
20114;SDS011;10218;42.874;25.320;2022-11-27T05:49:41;44.47;;;20.93;;
20114;SDS011;10218;42.874;25.320;2022-11-27T05:52:08;47.40;;;22.73;;
20114;SDS011;10218;42.874;25.320;2022-11-27T05:54:35;50.03;;;23.97;;
20114;SDS011;10218;42.874;25.320;2022-11-27T05:57:04;41.50;;;21.67;;
20114;SDS011;10218;42.874;25.320;2022-11-27T05:59:32;49.83;;;22.33;;
20114;SDS011;10218;42.874;25.320;2022-11-27T06:02:00;66.17;;;28.83;;
20114;SDS011;10218;42.874;25.320;2022-11-27T06:04:27;56.77;;;26.37;;
20114;SDS011;10218;42.874;25.320;2022-11-27T06:06:54;48.00;;;23.53;;
20114;SDS011;10218;42.874;25.320;2022-11-27T06:09:21;45.90;;;23.20;;
20114;SDS011;10218;42.874;25.320;2022-11-27T06:11:50;53.90;;;22.83;;
20114;SDS011;10218;42.874;25.320;2022-11-27T06:14:17;42.13;;;21.80;;
20114;SDS011;10218;42.874;25.320;2022-11-27T06:16:45;31.00;;;17.47;;
20114;SDS011;10218;42.874;25.320;2022-11-27T06:19:13;32.50;;;17.97;;
20114;SDS011;10218;42.874;25.320;2022-11-27T06:21:40;29.03;;;17.10;;
20114;SDS011;10218;42.874;25.320;2022-11-27T06:24:07;34.33;;;18.23;;
20114;SDS011;10218;42.874;25.320;2022-11-27T06:26:34;29.63;;;16.67;;
20114;SDS011;10218;42.874;25.320;2022-11-27T06:29:02;31.97;;;18.23;;
20114;SDS011;10218;42.874;25.320;2022-11-27T06:31:30;35.03;;;19.00;;
20114;SDS011;10218;42.874;25.320;2022-11-27T06:34:00;35.20;;;19.43;;
20114;SDS011;10218;42.874;25.320;2022-11-27T06:36:29;36.40;;;19.80;;
20114;SDS011;10218;42.874;25.320;2022-11-27T06:38:58;38.53;;;20.07;;
20114;SDS011;10218;42.874;25.320;2022-11-27T06:41:26;57.30;;;28.23;;
20114;SDS011;10218;42.874;25.320;2022-11-27T06:43:54;87.93;;;48.23;;
20114;SDS011;10218;42.874;25.320;2022-11-27T06:46:23;99.53;;;50.90;;
20114;SDS011;10218;42.874;25.320;2022-11-27T06:48:52;82.00;;;36.93;;
20114;SDS011;10218;42.874;25.320;2022-11-27T06:51:21;67.77;;;33.23;;
20114;SDS011;10218;42.874;25.320;2022-11-27T06:53:52;74.93;;;33.83;;
20114;SDS011;10218;42.874;25.320;2022-11-27T06:56:20;75.33;;;34.00;;
20114;SDS011;10218;42.874;25.320;2022-11-27T06:58:51;66.33;;;34.03;;
20114;SDS011;10218;42.874;25.320;2022-11-27T07:01:20;77.33;;;31.10;;
20114;SDS011;10218;42.874;25.320;2022-11-27T07:03:48;76.13;;;38.07;;
20114;SDS011;10218;42.874;25.320;2022-11-27T07:06:17;66.03;;;33.20;;
20114;SDS011;10218;42.874;25.320;2022-11-27T07:08:46;61.90;;;31.80;;
20114;SDS011;10218;42.874;25.320;2022-11-27T07:11:15;71.70;;;30.80;;
20114;SDS011;10218;42.874;25.320;2022-11-27T07:13:47;70.10;;;35.93;;
20114;SDS011;10218;42.874;25.320;2022-11-27T07:16:16;70.50;;;36.27;;
20114;SDS011;10218;42.874;25.320;2022-11-27T07:18:48;65.27;;;36.40;;
20114;SDS011;10218;42.874;25.320;2022-11-27T07:21:19;68.07;;;35.73;;
20114;SDS011;10218;42.874;25.320;2022-11-27T07:23:47;65.73;;;36.20;;
20114;SDS011;10218;42.874;25.320;2022-11-27T07:26:15;68.70;;;34.40;;
20114;SDS011;10218;42.874;25.320;2022-11-27T07:28:44;60.87;;;32.57;;
20114;SDS011;10218;42.874;25.320;2022-11-27T07:31:12;73.20;;;39.63;;
20114;SDS011;10218;42.874;25.320;2022-11-27T07:33:41;65.50;;;33.53;;
20114;SDS011;10218;42.874;25.320;2022-11-27T07:36:19;71.53;;;33.20;;
20114;SDS011;10218;42.874;25.320;2022-11-27T07:38:51;90.50;;;46.27;;
20114;SDS011;10218;42.874;25.320;2022-11-27T07:41:18;79.23;;;36.73;;
20114;SDS011;10218;42.874;25.320;2022-11-27T07:43:46;81.60;;;36.53;;
20114;SDS011;10218;42.874;25.320;2022-11-27T07:46:20;74.47;;;35.83;;
20114;SDS011;10218;42.874;25.320;2022-11-27T07:48:49;107.10;;;48.57;;
20114;SDS011;10218;42.874;25.320;2022-11-27T07:51:17;113.13;;;56.93;;
20114;SDS011;10218;42.874;25.320;2022-11-27T07:53:45;121.47;;;56.80;;
20114;SDS011;10218;42.874;25.320;2022-11-27T07:56:13;109.13;;;49.43;;
20114;SDS011;10218;42.874;25.320;2022-11-27T07:58:41;86.60;;;43.50;;
20114;SDS011;10218;42.874;25.320;2022-11-27T08:01:10;82.60;;;40.97;;
20114;SDS011;10218;42.874;25.320;2022-11-27T08:03:41;66.50;;;34.13;;
20114;SDS011;10218;42.874;25.320;2022-11-27T08:06:28;71.83;;;33.63;;
20114;SDS011;10218;42.874;25.320;2022-11-27T08:08:57;71.27;;;33.90;;
20114;SDS011;10218;42.874;25.320;2022-11-27T08:11:29;59.50;;;33.30;;
20114;SDS011;10218;42.874;25.320;2022-11-27T08:14:03;60.77;;;31.43;;
20114;SDS011;10218;42.874;25.320;2022-11-27T08:16:32;61.17;;;30.97;;
20114;SDS011;10218;42.874;25.320;2022-11-27T08:19:01;49.70;;;28.43;;
20114;SDS011;10218;42.874;25.320;2022-11-27T08:21:29;44.37;;;27.00;;
20114;SDS011;10218;42.874;25.320;2022-11-27T08:23:56;42.73;;;24.80;;
20114;SDS011;10218;42.874;25.320;2022-11-27T08:26:24;51.20;;;28.13;;
20114;SDS011;10218;42.874;25.320;2022-11-27T08:28:54;49.60;;;28.53;;
20114;SDS011;10218;42.874;25.320;2022-11-27T08:31:21;49.17;;;26.67;;
20114;SDS011;10218;42.874;25.320;2022-11-27T08:33:49;45.60;;;25.97;;
20114;SDS011;10218;42.874;25.320;2022-11-27T08:36:16;50.57;;;26.37;;
20114;SDS011;10218;42.874;25.320;2022-11-27T08:38:45;40.90;;;25.10;;
20114;SDS011;10218;42.874;25.320;2022-11-27T08:41:13;39.43;;;23.27;;
20114;SDS011;10218;42.874;25.320;2022-11-27T08:43:40;39.37;;;23.00;;
20114;SDS011;10218;42.874;25.320;2022-11-27T08:46:07;36.03;;;22.03;;
20114;SDS011;10218;42.874;25.320;2022-11-27T08:48:37;38.23;;;22.40;;
20114;SDS011;10218;42.874;25.320;2022-11-27T08:51:11;39.80;;;23.00;;
20114;SDS011;10218;42.874;25.320;2022-11-27T08:53:41;37.13;;;20.83;;
20114;SDS011;10218;42.874;25.320;2022-11-27T08:56:15;34.13;;;19.40;;
20114;SDS011;10218;42.874;25.320;2022-11-27T08:58:44;35.17;;;21.00;;
20114;SDS011;10218;42.874;25.320;2022-11-27T09:01:19;35.17;;;21.30;;
20114;SDS011;10218;42.874;25.320;2022-11-27T09:03:48;36.80;;;21.17;;
20114;SDS011;10218;42.874;25.320;2022-11-27T09:06:16;40.30;;;22.67;;
20114;SDS011;10218;42.874;25.320;2022-11-27T09:08:47;38.30;;;23.10;;
20114;SDS011;10218;42.874;25.320;2022-11-27T09:11:15;32.07;;;19.30;;
20114;SDS011;10218;42.874;25.320;2022-11-27T09:13:44;35.90;;;20.97;;
20114;SDS011;10218;42.874;25.320;2022-11-27T09:16:13;30.50;;;18.03;;
20114;SDS011;10218;42.874;25.320;2022-11-27T09:18:43;29.50;;;16.67;;
20114;SDS011;10218;42.874;25.320;2022-11-27T09:21:12;31.23;;;16.73;;
20114;SDS011;10218;42.874;25.320;2022-11-27T09:23:41;22.53;;;14.50;;
20114;SDS011;10218;42.874;25.320;2022-11-27T09:26:10;26.67;;;16.63;;
20114;SDS011;10218;42.874;25.320;2022-11-27T09:28:40;26.50;;;18.27;;
20114;SDS011;10218;42.874;25.320;2022-11-27T09:31:10;32.93;;;21.20;;
20114;SDS011;10218;42.874;25.320;2022-11-27T09:33:39;31.63;;;19.40;;
20114;SDS011;10218;42.874;25.320;2022-11-27T09:36:25;27.17;;;16.17;;
20114;SDS011;10218;42.874;25.320;2022-11-27T09:38:53;23.33;;;13.07;;
20114;SDS011;10218;42.874;25.320;2022-11-27T09:44:09;20.70;;;13.07;;
20114;SDS011;10218;42.874;25.320;2022-11-27T09:46:50;23.20;;;13.40;;
20114;SDS011;10218;42.874;25.320;2022-11-27T09:49:23;21.40;;;12.20;;
20114;SDS011;10218;42.874;25.320;2022-11-27T09:55:10;20.60;;;12.40;;
20114;SDS011;10218;42.874;25.320;2022-11-27T09:57:45;20.07;;;12.10;;
20114;SDS011;10218;42.874;25.320;2022-11-27T10:00:30;19.00;;;12.50;;
20114;SDS011;10218;42.874;25.320;2022-11-27T10:02:57;20.30;;;12.30;;
20114;SDS011;10218;42.874;25.320;2022-11-27T10:05:27;20.00;;;11.70;;
20114;SDS011;10218;42.874;25.320;2022-11-27T10:08:12;19.27;;;12.10;;
20114;SDS011;10218;42.874;25.320;2022-11-27T10:13:28;27.53;;;13.07;;
20114;SDS011;10218;42.874;25.320;2022-11-27T10:16:38;24.60;;;14.73;;
20114;SDS011;10218;42.874;25.320;2022-11-27T10:22:04;26.87;;;15.97;;
20114;SDS011;10218;42.874;25.320;2022-11-27T10:27:43;26.33;;;16.60;;
20114;SDS011;10218;42.874;25.320;2022-11-27T10:30:30;26.80;;;15.53;;
20114;SDS011;10218;42.874;25.320;2022-11-27T10:33:02;36.80;;;17.07;;
20114;SDS011;10218;42.874;25.320;2022-11-27T10:35:45;30.23;;;16.83;;
20114;SDS011;10218;42.874;25.320;2022-11-27T10:38:21;31.17;;;17.10;;
20114;SDS011;10218;42.874;25.320;2022-11-27T10:47:21;29.20;;;15.90;;
20114;SDS011;10218;42.874;25.320;2022-11-27T10:49:49;24.77;;;14.30;;
20114;SDS011;10218;42.874;25.320;2022-11-27T10:52:17;22.00;;;12.37;;
20114;SDS011;10218;42.874;25.320;2022-11-27T10:54:48;15.80;;;8.60;;
20114;SDS011;10218;42.874;25.320;2022-11-27T11:00:24;12.93;;;8.33;;
20114;SDS011;10218;42.874;25.320;2022-11-27T11:03:03;12.93;;;7.73;;
20114;SDS011;10218;42.874;25.320;2022-11-27T11:05:32;12.50;;;7.13;;
20114;SDS011;10218;42.874;25.320;2022-11-27T11:08:17;14.63;;;10.07;;
20114;SDS011;10218;42.874;25.320;2022-11-27T11:10:56;16.50;;;10.73;;
20114;SDS011;10218;42.874;25.320;2022-11-27T11:13:29;16.23;;;10.77;;
20114;SDS011;10218;42.874;25.320;2022-11-27T11:16:02;13.07;;;7.70;;
20114;SDS011;10218;42.874;25.320;2022-11-27T11:18:40;12.63;;;8.23;;
20114;SDS011;10218;42.874;25.320;2022-11-27T11:21:14;9.47;;;6.50;;
20114;SDS011;10218;42.874;25.320;2022-11-27T11:23:44;14.30;;;9.67;;
20114;SDS011;10218;42.874;25.320;2022-11-27T11:27:09;10.40;;;6.77;;
20114;SDS011;10218;42.874;25.320;2022-11-27T11:29:33;22.53;;;14.43;;
20114;SDS011;10218;42.874;25.320;2022-11-27T11:32:12;18.67;;;10.10;;
20114;SDS011;10218;42.874;25.320;2022-11-27T11:37:21;12.50;;;7.30;;
20114;SDS011;10218;42.874;25.320;2022-11-27T11:42:32;13.30;;;8.37;;
20114;SDS011;10218;42.874;25.320;2022-11-27T11:47:45;12.03;;;8.17;;
20114;SDS011;10218;42.874;25.320;2022-11-27T11:50:28;15.43;;;10.03;;
20114;SDS011;10218;42.874;25.320;2022-11-27T12:01:41;16.40;;;10.47;;
20114;SDS011;10218;42.874;25.320;2022-11-27T12:37:17;17.20;;;10.57;;
20114;SDS011;10218;42.874;25.320;2022-11-27T12:46:04;16.23;;;10.30;;
20114;SDS011;10218;42.874;25.320;2022-11-27T12:48:50;16.23;;;10.97;;
20114;SDS011;10218;42.874;25.320;2022-11-27T12:51:28;18.53;;;11.50;;
20114;SDS011;10218;42.874;25.320;2022-11-27T12:54:05;27.87;;;16.03;;
20114;SDS011;10218;42.874;25.320;2022-11-27T12:56:42;26.20;;;15.97;;
20114;SDS011;10218;42.874;25.320;2022-11-27T13:04:43;46.67;;;25.50;;
20114;SDS011;10218;42.874;25.320;2022-11-27T13:10:18;25.40;;;16.63;;
20114;SDS011;10218;42.874;25.320;2022-11-27T13:13:05;29.70;;;17.37;;
20114;SDS011;10218;42.874;25.320;2022-11-27T13:15:40;30.73;;;21.13;;
20114;SDS011;10218;42.874;25.320;2022-11-27T13:18:25;28.10;;;16.73;;
20114;SDS011;10218;42.874;25.320;2022-11-27T13:21:03;25.97;;;16.80;;
20114;SDS011;10218;42.874;25.320;2022-11-27T13:23:34;24.50;;;16.00;;
20114;SDS011;10218;42.874;25.320;2022-11-27T13:26:03;26.13;;;13.53;;
20114;SDS011;10218;42.874;25.320;2022-11-27T13:28:37;21.60;;;13.37;;
20114;SDS011;10218;42.874;25.320;2022-11-27T13:31:26;29.83;;;16.33;;
20114;SDS011;10218;42.874;25.320;2022-11-27T13:33:58;25.10;;;14.73;;
20114;SDS011;10218;42.874;25.320;2022-11-27T13:36:34;27.60;;;14.70;;
20114;SDS011;10218;42.874;25.320;2022-11-27T13:39:05;33.93;;;15.30;;
20114;SDS011;10218;42.874;25.320;2022-11-27T13:41:33;20.87;;;12.60;;
20114;SDS011;10218;42.874;25.320;2022-11-27T13:44:24;25.27;;;13.93;;
20114;SDS011;10218;42.874;25.320;2022-11-27T13:46:53;31.83;;;16.63;;
20114;SDS011;10218;42.874;25.320;2022-11-27T13:49:29;27.83;;;15.07;;
20114;SDS011;10218;42.874;25.320;2022-11-27T13:54:54;30.77;;;15.60;;
20114;SDS011;10218;42.874;25.320;2022-11-27T13:57:23;26.17;;;15.03;;
20114;SDS011;10218;42.874;25.320;2022-11-27T13:59:58;28.00;;;17.27;;
20114;SDS011;10218;42.874;25.320;2022-11-27T14:02:45;27.60;;;15.83;;
20114;SDS011;10218;42.874;25.320;2022-11-27T14:05:15;42.83;;;20.20;;
20114;SDS011;10218;42.874;25.320;2022-11-27T14:07:48;48.90;;;19.23;;
20114;SDS011;10218;42.874;25.320;2022-11-27T14:10:22;41.77;;;20.40;;
20114;SDS011;10218;42.874;25.320;2022-11-27T14:12:55;31.33;;;17.70;;
20114;SDS011;10218;42.874;25.320;2022-11-27T14:15:28;28.73;;;17.13;;
20114;SDS011;10218;42.874;25.320;2022-11-27T14:20:50;30.77;;;18.60;;
20114;SDS011;10218;42.874;25.320;2022-11-27T14:23:28;33.53;;;21.13;;
20114;SDS011;10218;42.874;25.320;2022-11-27T14:26:22;41.63;;;25.40;;
20114;SDS011;10218;42.874;25.320;2022-11-27T14:28:53;48.77;;;29.83;;
20114;SDS011;10218;42.874;25.320;2022-11-27T14:33:48;38.03;;;25.50;;
20114;SDS011;10218;42.874;25.320;2022-11-27T14:36:35;45.23;;;28.57;;
20114;SDS011;10218;42.874;25.320;2022-11-27T14:39:03;52.83;;;35.40;;
20114;SDS011;10218;42.874;25.320;2022-11-27T14:41:30;40.97;;;26.67;;
20114;SDS011;10218;42.874;25.320;2022-11-27T14:44:02;41.60;;;24.93;;
20114;SDS011;10218;42.874;25.320;2022-11-27T14:46:32;28.93;;;17.67;;
20114;SDS011;10218;42.874;25.320;2022-11-27T14:49:03;36.90;;;22.97;;
20114;SDS011;10218;42.874;25.320;2022-11-27T14:51:31;42.07;;;20.87;;
20114;SDS011;10218;42.874;25.320;2022-11-27T14:54:02;43.00;;;23.47;;
20114;SDS011;10218;42.874;25.320;2022-11-27T14:56:41;42.37;;;23.50;;
20114;SDS011;10218;42.874;25.320;2022-11-27T14:59:14;34.47;;;22.17;;
20114;SDS011;10218;42.874;25.320;2022-11-27T15:01:43;39.70;;;23.73;;
20114;SDS011;10218;42.874;25.320;2022-11-27T15:06:54;40.53;;;23.10;;
20114;SDS011;10218;42.874;25.320;2022-11-27T15:09:27;35.73;;;21.93;;
20114;SDS011;10218;42.874;25.320;2022-11-27T15:11:59;33.63;;;19.73;;
20114;SDS011;10218;42.874;25.320;2022-11-27T15:14:34;37.27;;;21.77;;
20114;SDS011;10218;42.874;25.320;2022-11-27T15:17:01;29.57;;;17.93;;
20114;SDS011;10218;42.874;25.320;2022-11-27T15:19:33;36.23;;;23.63;;
20114;SDS011;10218;42.874;25.320;2022-11-27T15:22:04;37.87;;;22.90;;
20114;SDS011;10218;42.874;25.320;2022-11-27T15:24:33;48.00;;;28.63;;
20114;SDS011;10218;42.874;25.320;2022-11-27T15:32:19;39.53;;;24.30;;
20114;SDS011;10218;42.874;25.320;2022-11-27T15:34:50;46.63;;;28.63;;
20114;SDS011;10218;42.874;25.320;2022-11-27T15:37:22;45.40;;;26.17;;
20114;SDS011;10218;42.874;25.320;2022-11-27T15:39:54;52.43;;;29.83;;
20114;SDS011;10218;42.874;25.320;2022-11-27T15:42:23;51.47;;;28.70;;
20114;SDS011;10218;42.874;25.320;2022-11-27T15:44:55;50.70;;;30.20;;
20114;SDS011;10218;42.874;25.320;2022-11-27T15:47:33;49.87;;;27.07;;
20114;SDS011;10218;42.874;25.320;2022-11-27T15:50:03;50.03;;;27.57;;
20114;SDS011;10218;42.874;25.320;2022-11-27T15:52:31;51.43;;;30.33;;
20114;SDS011;10218;42.874;25.320;2022-11-27T15:54:58;46.23;;;29.17;;
20114;SDS011;10218;42.874;25.320;2022-11-27T15:57:26;52.43;;;32.57;;
20114;SDS011;10218;42.874;25.320;2022-11-27T15:59:53;62.17;;;36.93;;
20114;SDS011;10218;42.874;25.320;2022-11-27T16:02:20;52.47;;;31.23;;
20114;SDS011;10218;42.874;25.320;2022-11-27T16:04:48;51.33;;;30.77;;
20114;SDS011;10218;42.874;25.320;2022-11-27T16:07:16;52.77;;;31.63;;
20114;SDS011;10218;42.874;25.320;2022-11-27T16:09:45;50.47;;;31.33;;
20114;SDS011;10218;42.874;25.320;2022-11-27T16:12:13;46.07;;;28.13;;
20114;SDS011;10218;42.874;25.320;2022-11-27T16:14:40;49.10;;;29.77;;
20114;SDS011;10218;42.874;25.320;2022-11-27T16:17:08;56.40;;;32.43;;
20114;SDS011;10218;42.874;25.320;2022-11-27T16:19:35;58.47;;;34.53;;
20114;SDS011;10218;42.874;25.320;2022-11-27T16:22:02;57.57;;;34.13;;
20114;SDS011;10218;42.874;25.320;2022-11-27T16:24:29;52.80;;;31.97;;
20114;SDS011;10218;42.874;25.320;2022-11-27T16:26:57;51.33;;;30.40;;
20114;SDS011;10218;42.874;25.320;2022-11-27T16:29:24;52.83;;;30.47;;
20114;SDS011;10218;42.874;25.320;2022-11-27T16:31:51;53.70;;;33.00;;
20114;SDS011;10218;42.874;25.320;2022-11-27T16:34:18;56.77;;;33.23;;
20114;SDS011;10218;42.874;25.320;2022-11-27T16:36:46;54.50;;;31.13;;
20114;SDS011;10218;42.874;25.320;2022-11-27T16:39:15;52.60;;;31.23;;
20114;SDS011;10218;42.874;25.320;2022-11-27T16:41:43;59.47;;;34.80;;
20114;SDS011;10218;42.874;25.320;2022-11-27T16:44:12;69.97;;;40.00;;
20114;SDS011;10218;42.874;25.320;2022-11-27T16:46:41;75.20;;;41.80;;
20114;SDS011;10218;42.874;25.320;2022-11-27T16:49:10;78.60;;;45.40;;
20114;SDS011;10218;42.874;25.320;2022-11-27T16:51:38;82.60;;;48.83;;
20114;SDS011;10218;42.874;25.320;2022-11-27T16:54:08;68.90;;;40.90;;
20114;SDS011;10218;42.874;25.320;2022-11-27T16:56:38;70.03;;;41.37;;
20114;SDS011;10218;42.874;25.320;2022-11-27T16:59:06;72.43;;;40.80;;
20114;SDS011;10218;42.874;25.320;2022-11-27T17:01:36;93.73;;;53.70;;
20114;SDS011;10218;42.874;25.320;2022-11-27T17:04:05;75.60;;;43.77;;